Terminal Aerodrome Forecast
Issued by NWS

Home | Current Version | Previous Version | Text Only | Print | Product List | Glossary On
Versions: 1 2 3 4 5 6 7 8 9 10 11 12 13 14 15 16
000
FTUS45 KFGZ 240537
TAFGCN
TAF
KGCN 240537Z 2406/2506 VRB05KT P6SM BKN100
     FM241800 27010KT P6SM SCT070 BKN120 PROB30 2420/2424 VRB10G20KT
      P6SM -TSRA BKN060CB
     FM250100 VRB06KT P6SM FEW070 SCT110=

USA.gov is the U.S. government's official web portal to all federal, state and local government web resources and services.